Terminal Aerodrome Forecast
Issued by NWS Sterling, VA

Current Version | Previous Version | Graphics & Text | Print | Product List | Glossary On
Versions: 1 2 3 4 5 6 7 8 9 10 11 12 13 14 15 16 17 18 19 20 21 22 23 24
204
FTUS41 KLWX 151501 AAA
TAFDCA
TAF AMD
KDCA 151501Z 1515/1612 07005KT P6SM SCT040
     FM151800 VRB03KT P6SM OVC025
     FM160100 00000KT 3SM -DZRA BR OVC010
     FM160600 VRB03KT P6SM BKN050=

USA.gov is the U.S. government's official web portal to all federal, state and local government web resources and services.